sensor_id;sensor_type;location;lat;lon;timestamp;temperature;humidity
19908;DHT22;10116;53.112;7.356;2024-03-29T00:01:50;23.80;36.00
19908;DHT22;10116;53.112;7.356;2024-03-29T00:04:16;23.80;36.10
19908;DHT22;10116;53.112;7.356;2024-03-29T00:06:41;23.80;35.90
19908;DHT22;10116;53.112;7.356;2024-03-29T00:09:07;23.80;36.70
19908;DHT22;10116;53.112;7.356;2024-03-29T00:11:33;23.80;35.80
19908;DHT22;10116;53.112;7.356;2024-03-29T00:13:58;23.80;35.90
19908;DHT22;10116;53.112;7.356;2024-03-29T00:16:24;23.80;35.60
19908;DHT22;10116;53.112;7.356;2024-03-29T00:18:52;23.80;36.50
19908;DHT22;10116;53.112;7.356;2024-03-29T00:21:18;23.80;36.40
19908;DHT22;10116;53.112;7.356;2024-03-29T00:23:44;23.80;36.10
19908;DHT22;10116;53.112;7.356;2024-03-29T00:26:11;23.80;36.00
19908;DHT22;10116;53.112;7.356;2024-03-29T00:28:37;23.80;35.00
19908;DHT22;10116;53.112;7.356;2024-03-29T00:31:03;23.80;36.00
19908;DHT22;10116;53.112;7.356;2024-03-29T00:33:29;23.80;35.40
19908;DHT22;10116;53.112;7.356;2024-03-29T00:35:55;23.80;35.50
19908;DHT22;10116;53.112;7.356;2024-03-29T00:38:20;23.80;47.30
19908;DHT22;10116;53.112;7.356;2024-03-29T00:40:46;23.70;35.30
19908;DHT22;10116;53.112;7.356;2024-03-29T00:43:12;23.70;35.40
19908;DHT22;10116;53.112;7.356;2024-03-29T00:45:38;23.70;35.80
19908;DHT22;10116;53.112;7.356;2024-03-29T00:48:03;23.80;35.70
19908;DHT22;10116;53.112;7.356;2024-03-29T00:50:29;23.70;35.30
19908;DHT22;10116;53.112;7.356;2024-03-29T00:52:55;23.70;35.70
19908;DHT22;10116;53.112;7.356;2024-03-29T00:55:21;23.70;35.40
19908;DHT22;10116;53.112;7.356;2024-03-29T00:57:46;23.80;35.00
19908;DHT22;10116;53.112;7.356;2024-03-29T01:00:12;23.70;35.40
19908;DHT22;10116;53.112;7.356;2024-03-29T01:02:38;23.80;35.20
19908;DHT22;10116;53.112;7.356;2024-03-29T01:05:04;23.70;35.00
19908;DHT22;10116;53.112;7.356;2024-03-29T01:07:29;23.80;35.30
19908;DHT22;10116;53.112;7.356;2024-03-29T01:09:55;23.70;35.30
19908;DHT22;10116;53.112;7.356;2024-03-29T01:12:21;23.80;35.80
19908;DHT22;10116;53.112;7.356;2024-03-29T01:14:46;23.70;35.10
19908;DHT22;10116;53.112;7.356;2024-03-29T01:17:12;23.70;35.00
19908;DHT22;10116;53.112;7.356;2024-03-29T01:19:37;23.80;35.40
19908;DHT22;10116;53.112;7.356;2024-03-29T01:22:04;23.70;34.80
19908;DHT22;10116;53.112;7.356;2024-03-29T01:24:30;23.70;35.40
19908;DHT22;10116;53.112;7.356;2024-03-29T01:26:55;23.70;35.70
19908;DHT22;10116;53.112;7.356;2024-03-29T01:29:21;23.80;36.10
19908;DHT22;10116;53.112;7.356;2024-03-29T01:31:47;23.80;36.80
19908;DHT22;10116;53.112;7.356;2024-03-29T01:34:12;23.80;37.10
19908;DHT22;10116;53.112;7.356;2024-03-29T01:36:38;23.90;37.40
19908;DHT22;10116;53.112;7.356;2024-03-29T01:39:04;23.90;38.10
19908;DHT22;10116;53.112;7.356;2024-03-29T01:41:30;24.00;38.50
19908;DHT22;10116;53.112;7.356;2024-03-29T01:43:55;24.00;37.80
19908;DHT22;10116;53.112;7.356;2024-03-29T01:46:23;24.00;50.40
19908;DHT22;10116;53.112;7.356;2024-03-29T01:48:53;24.00;38.90
19908;DHT22;10116;53.112;7.356;2024-03-29T01:51:20;24.00;38.20
19908;DHT22;10116;53.112;7.356;2024-03-29T01:53:47;24.00;38.60
19908;DHT22;10116;53.112;7.356;2024-03-29T01:56:16;24.00;38.30
19908;DHT22;10116;53.112;7.356;2024-03-29T01:58:42;24.10;38.50
19908;DHT22;10116;53.112;7.356;2024-03-29T02:01:09;24.00;38.40
19908;DHT22;10116;53.112;7.356;2024-03-29T02:03:36;24.00;38.40
19908;DHT22;10116;53.112;7.356;2024-03-29T02:06:01;24.00;38.80
19908;DHT22;10116;53.112;7.356;2024-03-29T02:08:29;24.10;49.60
19908;DHT22;10116;53.112;7.356;2024-03-29T02:10:54;24.00;38.00
19908;DHT22;10116;53.112;7.356;2024-03-29T02:13:21;24.00;37.70
19908;DHT22;10116;53.112;7.356;2024-03-29T02:15:47;24.10;38.30
19908;DHT22;10116;53.112;7.356;2024-03-29T02:18:12;24.10;38.30
19908;DHT22;10116;53.112;7.356;2024-03-29T02:20:38;24.10;38.10
19908;DHT22;10116;53.112;7.356;2024-03-29T02:25:29;24.10;38.70
19908;DHT22;10116;53.112;7.356;2024-03-29T02:27:56;24.10;38.20
19908;DHT22;10116;53.112;7.356;2024-03-29T02:30:22;24.10;37.50
19908;DHT22;10116;53.112;7.356;2024-03-29T02:32:47;24.00;37.90
19908;DHT22;10116;53.112;7.356;2024-03-29T02:35:13;24.10;38.00
19908;DHT22;10116;53.112;7.356;2024-03-29T02:37:39;24.10;37.90
19908;DHT22;10116;53.112;7.356;2024-03-29T02:40:05;24.10;37.30
19908;DHT22;10116;53.112;7.356;2024-03-29T02:42:32;24.10;37.50
19908;DHT22;10116;53.112;7.356;2024-03-29T02:44:58;24.10;37.30
19908;DHT22;10116;53.112;7.356;2024-03-29T02:47:23;24.10;37.60
19908;DHT22;10116;53.112;7.356;2024-03-29T02:49:49;24.10;37.70
19908;DHT22;10116;53.112;7.356;2024-03-29T02:52:15;24.10;37.40
19908;DHT22;10116;53.112;7.356;2024-03-29T02:54:41;24.10;37.30
19908;DHT22;10116;53.112;7.356;2024-03-29T02:57:07;24.10;49.40
19908;DHT22;10116;53.112;7.356;2024-03-29T02:59:33;24.10;37.20
19908;DHT22;10116;53.112;7.356;2024-03-29T03:01:58;24.10;36.90
19908;DHT22;10116;53.112;7.356;2024-03-29T03:04:24;24.10;37.10
19908;DHT22;10116;53.112;7.356;2024-03-29T03:06:50;24.10;36.80
19908;DHT22;10116;53.112;7.356;2024-03-29T03:09:15;24.10;37.30
19908;DHT22;10116;53.112;7.356;2024-03-29T03:11:59;24.10;36.60
19908;DHT22;10116;53.112;7.356;2024-03-29T03:14:25;24.10;36.80
19908;DHT22;10116;53.112;7.356;2024-03-29T03:16:51;24.10;37.00
19908;DHT22;10116;53.112;7.356;2024-03-29T03:19:16;24.10;37.40
19908;DHT22;10116;53.112;7.356;2024-03-29T03:21:42;24.10;37.10
19908;DHT22;10116;53.112;7.356;2024-03-29T03:24:08;24.00;36.60
19908;DHT22;10116;53.112;7.356;2024-03-29T03:26:34;24.10;36.70
19908;DHT22;10116;53.112;7.356;2024-03-29T03:29:00;24.10;37.50
19908;DHT22;10116;53.112;7.356;2024-03-29T03:31:25;24.10;37.40
19908;DHT22;10116;53.112;7.356;2024-03-29T03:33:51;24.10;37.30
19908;DHT22;10116;53.112;7.356;2024-03-29T03:36:17;24.10;36.50
19908;DHT22;10116;53.112;7.356;2024-03-29T03:38:42;24.10;37.10
19908;DHT22;10116;53.112;7.356;2024-03-29T03:41:08;24.10;36.70
19908;DHT22;10116;53.112;7.356;2024-03-29T03:43:34;24.00;37.00
19908;DHT22;10116;53.112;7.356;2024-03-29T03:46:02;24.10;36.40
19908;DHT22;10116;53.112;7.356;2024-03-29T03:48:28;24.10;36.70
19908;DHT22;10116;53.112;7.356;2024-03-29T03:50:55;24.00;36.90
19908;DHT22;10116;53.112;7.356;2024-03-29T03:53:21;24.00;36.40
19908;DHT22;10116;53.112;7.356;2024-03-29T03:55:47;24.00;36.60
19908;DHT22;10116;53.112;7.356;2024-03-29T03:58:13;24.00;36.30
19908;DHT22;10116;53.112;7.356;2024-03-29T04:00:39;24.00;36.10
19908;DHT22;10116;53.112;7.356;2024-03-29T04:03:04;24.00;35.90
19908;DHT22;10116;53.112;7.356;2024-03-29T04:05:30;24.10;35.90
19908;DHT22;10116;53.112;7.356;2024-03-29T04:07:57;24.10;36.10
19908;DHT22;10116;53.112;7.356;2024-03-29T04:10:23;24.00;35.60
19908;DHT22;10116;53.112;7.356;2024-03-29T04:12:50;24.10;35.80
19908;DHT22;10116;53.112;7.356;2024-03-29T04:15:16;24.10;36.60
19908;DHT22;10116;53.112;7.356;2024-03-29T04:17:42;24.00;36.10
19908;DHT22;10116;53.112;7.356;2024-03-29T04:20:08;24.00;36.30
19908;DHT22;10116;53.112;7.356;2024-03-29T04:22:33;24.00;35.60
19908;DHT22;10116;53.112;7.356;2024-03-29T04:24:59;24.10;35.60
19908;DHT22;10116;53.112;7.356;2024-03-29T04:27:25;24.00;35.30
19908;DHT22;10116;53.112;7.356;2024-03-29T04:29:54;24.10;35.70
19908;DHT22;10116;53.112;7.356;2024-03-29T04:32:20;24.10;36.00
19908;DHT22;10116;53.112;7.356;2024-03-29T04:34:50;24.10;35.40
19908;DHT22;10116;53.112;7.356;2024-03-29T04:37:16;24.10;35.80
19908;DHT22;10116;53.112;7.356;2024-03-29T04:39:43;24.10;36.00
19908;DHT22;10116;53.112;7.356;2024-03-29T04:42:09;24.10;36.10
19908;DHT22;10116;53.112;7.356;2024-03-29T04:44:35;24.10;36.10
19908;DHT22;10116;53.112;7.356;2024-03-29T04:47:00;24.10;36.30
19908;DHT22;10116;53.112;7.356;2024-03-29T04:49:27;24.10;36.70
19908;DHT22;10116;53.112;7.356;2024-03-29T04:52:07;24.10;36.10
19908;DHT22;10116;53.112;7.356;2024-03-29T04:54:34;24.10;36.00
19908;DHT22;10116;53.112;7.356;2024-03-29T04:57:00;24.10;36.60
19908;DHT22;10116;53.112;7.356;2024-03-29T04:59:32;24.20;36.30
19908;DHT22;10116;53.112;7.356;2024-03-29T05:02:01;24.20;36.60
19908;DHT22;10116;53.112;7.356;2024-03-29T05:04:27;24.10;36.30
19908;DHT22;10116;53.112;7.356;2024-03-29T05:06:57;24.10;36.50
19908;DHT22;10116;53.112;7.356;2024-03-29T05:09:26;24.10;36.30
19908;DHT22;10116;53.112;7.356;2024-03-29T05:11:52;24.20;36.50
19908;DHT22;10116;53.112;7.356;2024-03-29T05:14:19;24.10;37.10
19908;DHT22;10116;53.112;7.356;2024-03-29T05:16:48;24.20;37.50
19908;DHT22;10116;53.112;7.356;2024-03-29T05:19:15;24.20;36.70
19908;DHT22;10116;53.112;7.356;2024-03-29T05:21:41;24.20;36.80
19908;DHT22;10116;53.112;7.356;2024-03-29T05:24:08;24.20;37.00
19908;DHT22;10116;53.112;7.356;2024-03-29T05:26:34;24.20;37.10
19908;DHT22;10116;53.112;7.356;2024-03-29T05:28:59;24.20;38.00
19908;DHT22;10116;53.112;7.356;2024-03-29T05:31:26;24.20;36.70
19908;DHT22;10116;53.112;7.356;2024-03-29T05:33:52;24.20;36.70
19908;DHT22;10116;53.112;7.356;2024-03-29T05:36:18;24.20;36.80
19908;DHT22;10116;53.112;7.356;2024-03-29T05:38:44;24.20;37.30
19908;DHT22;10116;53.112;7.356;2024-03-29T05:41:10;24.20;36.80
19908;DHT22;10116;53.112;7.356;2024-03-29T05:43:35;24.20;37.30
19908;DHT22;10116;53.112;7.356;2024-03-29T05:46:02;24.20;37.30
19908;DHT22;10116;53.112;7.356;2024-03-29T05:48:28;24.20;37.50
19908;DHT22;10116;53.112;7.356;2024-03-29T05:50:54;24.30;37.30
19908;DHT22;10116;53.112;7.356;2024-03-29T05:53:20;24.20;36.90
19908;DHT22;10116;53.112;7.356;2024-03-29T05:55:45;24.30;37.10
19908;DHT22;10116;53.112;7.356;2024-03-29T05:58:11;24.20;37.20
19908;DHT22;10116;53.112;7.356;2024-03-29T06:00:42;24.30;36.70
19908;DHT22;10116;53.112;7.356;2024-03-29T06:03:08;24.30;36.80
19908;DHT22;10116;53.112;7.356;2024-03-29T06:05:34;24.30;37.50
19908;DHT22;10116;53.112;7.356;2024-03-29T06:07:59;24.30;37.20
19908;DHT22;10116;53.112;7.356;2024-03-29T06:10:25;24.30;36.70
19908;DHT22;10116;53.112;7.356;2024-03-29T06:12:50;24.30;37.70
19908;DHT22;10116;53.112;7.356;2024-03-29T06:15:16;24.30;37.80
19908;DHT22;10116;53.112;7.356;2024-03-29T06:18:00;24.30;37.10
19908;DHT22;10116;53.112;7.356;2024-03-29T06:20:26;24.30;37.60
19908;DHT22;10116;53.112;7.356;2024-03-29T06:22:51;24.30;37.20
19908;DHT22;10116;53.112;7.356;2024-03-29T06:25:17;24.30;37.30
19908;DHT22;10116;53.112;7.356;2024-03-29T06:27:43;24.30;38.10
19908;DHT22;10116;53.112;7.356;2024-03-29T06:30:15;24.30;38.20
19908;DHT22;10116;53.112;7.356;2024-03-29T06:32:42;24.30;37.30
19908;DHT22;10116;53.112;7.356;2024-03-29T06:35:08;24.30;36.80
19908;DHT22;10116;53.112;7.356;2024-03-29T06:37:34;24.30;36.60
19908;DHT22;10116;53.112;7.356;2024-03-29T06:40:00;24.30;49.50
19908;DHT22;10116;53.112;7.356;2024-03-29T06:42:25;24.30;37.10
19908;DHT22;10116;53.112;7.356;2024-03-29T06:44:51;24.30;36.90
19908;DHT22;10116;53.112;7.356;2024-03-29T06:47:17;24.30;37.50
19908;DHT22;10116;53.112;7.356;2024-03-29T06:49:44;24.30;37.30
19908;DHT22;10116;53.112;7.356;2024-03-29T06:52:11;24.30;37.10
19908;DHT22;10116;53.112;7.356;2024-03-29T06:54:36;24.30;37.40
19908;DHT22;10116;53.112;7.356;2024-03-29T06:57:02;24.30;37.40
19908;DHT22;10116;53.112;7.356;2024-03-29T06:59:28;24.30;38.00
19908;DHT22;10116;53.112;7.356;2024-03-29T07:01:54;24.30;36.80
19908;DHT22;10116;53.112;7.356;2024-03-29T07:04:21;24.30;36.70
19908;DHT22;10116;53.112;7.356;2024-03-29T07:06:47;24.30;37.20
19908;DHT22;10116;53.112;7.356;2024-03-29T07:09:19;24.30;38.00
19908;DHT22;10116;53.112;7.356;2024-03-29T07:11:46;24.30;37.20
19908;DHT22;10116;53.112;7.356;2024-03-29T07:14:13;24.30;49.20
19908;DHT22;10116;53.112;7.356;2024-03-29T07:16:39;24.30;37.10
19908;DHT22;10116;53.112;7.356;2024-03-29T07:19:05;24.30;37.40
19908;DHT22;10116;53.112;7.356;2024-03-29T07:21:30;24.30;37.50
19908;DHT22;10116;53.112;7.356;2024-03-29T07:23:56;24.30;37.00
19908;DHT22;10116;53.112;7.356;2024-03-29T07:26:22;24.30;37.40
19908;DHT22;10116;53.112;7.356;2024-03-29T07:28:47;24.30;37.40
19908;DHT22;10116;53.112;7.356;2024-03-29T07:31:13;24.30;37.70
19908;DHT22;10116;53.112;7.356;2024-03-29T07:33:39;24.30;37.20
19908;DHT22;10116;53.112;7.356;2024-03-29T07:36:05;24.30;37.40
19908;DHT22;10116;53.112;7.356;2024-03-29T07:38:31;24.30;37.80
19908;DHT22;10116;53.112;7.356;2024-03-29T07:40:57;24.30;37.40
19908;DHT22;10116;53.112;7.356;2024-03-29T07:43:23;24.30;38.00
19908;DHT22;10116;53.112;7.356;2024-03-29T07:45:49;24.30;37.20
19908;DHT22;10116;53.112;7.356;2024-03-29T07:48:18;24.30;37.70
19908;DHT22;10116;53.112;7.356;2024-03-29T07:50:45;24.30;38.50
19908;DHT22;10116;53.112;7.356;2024-03-29T07:53:11;24.30;37.80
19908;DHT22;10116;53.112;7.356;2024-03-29T07:55:39;24.30;37.90
19908;DHT22;10116;53.112;7.356;2024-03-29T07:58:05;24.30;38.20
19908;DHT22;10116;53.112;7.356;2024-03-29T08:00:32;24.30;38.90
19908;DHT22;10116;53.112;7.356;2024-03-29T08:02:58;24.30;38.60
19908;DHT22;10116;53.112;7.356;2024-03-29T08:05:24;24.30;38.90
19908;DHT22;10116;53.112;7.356;2024-03-29T08:07:50;24.30;38.90
19908;DHT22;10116;53.112;7.356;2024-03-29T08:10:16;24.30;39.10
19908;DHT22;10116;53.112;7.356;2024-03-29T08:12:41;24.30;39.90
19908;DHT22;10116;53.112;7.356;2024-03-29T08:15:07;24.30;39.40
19908;DHT22;10116;53.112;7.356;2024-03-29T08:17:34;24.40;39.40
19908;DHT22;10116;53.112;7.356;2024-03-29T08:19:59;24.30;39.50
19908;DHT22;10116;53.112;7.356;2024-03-29T08:22:25;24.40;39.80
19908;DHT22;10116;53.112;7.356;2024-03-29T08:24:51;24.40;39.80
19908;DHT22;10116;53.112;7.356;2024-03-29T08:27:17;24.40;40.10
19908;DHT22;10116;53.112;7.356;2024-03-29T08:29:43;24.40;40.00
19908;DHT22;10116;53.112;7.356;2024-03-29T08:32:09;24.40;40.80
19908;DHT22;10116;53.112;7.356;2024-03-29T08:34:38;24.40;40.30
19908;DHT22;10116;53.112;7.356;2024-03-29T08:37:04;24.40;40.20
19908;DHT22;10116;53.112;7.356;2024-03-29T08:39:30;24.40;41.50
19908;DHT22;10116;53.112;7.356;2024-03-29T08:41:57;24.40;40.50
19908;DHT22;10116;53.112;7.356;2024-03-29T08:44:23;24.40;41.10
19908;DHT22;10116;53.112;7.356;2024-03-29T08:46:50;24.40;41.00
19908;DHT22;10116;53.112;7.356;2024-03-29T08:49:16;24.40;41.30
19908;DHT22;10116;53.112;7.356;2024-03-29T08:51:41;24.40;41.70
19908;DHT22;10116;53.112;7.356;2024-03-29T08:54:07;24.40;41.40
19908;DHT22;10116;53.112;7.356;2024-03-29T08:56:32;24.40;41.60
19908;DHT22;10116;53.112;7.356;2024-03-29T08:59:05;24.40;41.50
19908;DHT22;10116;53.112;7.356;2024-03-29T09:01:37;24.40;42.30
19908;DHT22;10116;53.112;7.356;2024-03-29T09:04:03;24.40;41.50
19908;DHT22;10116;53.112;7.356;2024-03-29T09:06:32;24.40;41.90
19908;DHT22;10116;53.112;7.356;2024-03-29T09:08:58;24.40;41.80
19908;DHT22;10116;53.112;7.356;2024-03-29T09:11:24;24.40;41.60
19908;DHT22;10116;53.112;7.356;2024-03-29T09:13:49;24.40;42.50
19908;DHT22;10116;53.112;7.356;2024-03-29T09:16:15;24.40;41.40
19908;DHT22;10116;53.112;7.356;2024-03-29T09:18:40;24.40;41.50
19908;DHT22;10116;53.112;7.356;2024-03-29T09:21:06;24.40;41.90
19908;DHT22;10116;53.112;7.356;2024-03-29T09:23:34;24.40;41.50
19908;DHT22;10116;53.112;7.356;2024-03-29T09:25:59;24.40;42.30
19908;DHT22;10116;53.112;7.356;2024-03-29T09:28:25;24.40;43.50
19908;DHT22;10116;53.112;7.356;2024-03-29T09:30:58;24.50;44.10
19908;DHT22;10116;53.112;7.356;2024-03-29T09:33:24;24.60;44.50
19908;DHT22;10116;53.112;7.356;2024-03-29T09:35:50;24.60;45.20
19908;DHT22;10116;53.112;7.356;2024-03-29T09:38:16;24.60;45.30
19908;DHT22;10116;53.112;7.356;2024-03-29T09:40:42;24.70;45.60
19908;DHT22;10116;53.112;7.356;2024-03-29T09:43:10;24.70;45.50
19908;DHT22;10116;53.112;7.356;2024-03-29T09:45:37;24.70;45.90
19908;DHT22;10116;53.112;7.356;2024-03-29T09:48:04;24.70;46.20
19908;DHT22;10116;53.112;7.356;2024-03-29T09:50:31;24.80;46.60
19908;DHT22;10116;53.112;7.356;2024-03-29T09:52:58;24.80;46.30
19908;DHT22;10116;53.112;7.356;2024-03-29T09:55:24;24.80;46.90
19908;DHT22;10116;53.112;7.356;2024-03-29T09:57:50;24.80;46.80
19908;DHT22;10116;53.112;7.356;2024-03-29T10:00:17;24.70;46.30
19908;DHT22;10116;53.112;7.356;2024-03-29T10:02:43;24.60;45.00
19908;DHT22;10116;53.112;7.356;2024-03-29T10:05:11;24.60;44.50
19908;DHT22;10116;53.112;7.356;2024-03-29T10:07:38;24.60;44.50
19908;DHT22;10116;53.112;7.356;2024-03-29T10:10:04;24.60;45.40
19908;DHT22;10116;53.112;7.356;2024-03-29T10:12:30;24.60;44.50
19908;DHT22;10116;53.112;7.356;2024-03-29T10:14:56;24.60;44.70
19908;DHT22;10116;53.112;7.356;2024-03-29T10:17:31;24.60;44.80
19908;DHT22;10116;53.112;7.356;2024-03-29T10:20:01;24.60;45.40
19908;DHT22;10116;53.112;7.356;2024-03-29T10:22:29;24.60;45.30
19908;DHT22;10116;53.112;7.356;2024-03-29T10:24:57;24.60;45.40
19908;DHT22;10116;53.112;7.356;2024-03-29T10:27:27;24.70;46.00
19908;DHT22;10116;53.112;7.356;2024-03-29T10:29:55;24.70;45.90
19908;DHT22;10116;53.112;7.356;2024-03-29T10:32:22;24.70;45.80
19908;DHT22;10116;53.112;7.356;2024-03-29T10:34:49;24.70;46.00
19908;DHT22;10116;53.112;7.356;2024-03-29T10:37:14;24.70;46.30
19908;DHT22;10116;53.112;7.356;2024-03-29T10:39:44;24.70;46.20
19908;DHT22;10116;53.112;7.356;2024-03-29T10:42:11;24.70;47.10
19908;DHT22;10116;53.112;7.356;2024-03-29T10:44:39;24.70;46.40
19908;DHT22;10116;53.112;7.356;2024-03-29T10:47:06;24.70;46.20
19908;DHT22;10116;53.112;7.356;2024-03-29T10:49:33;24.70;46.30
19908;DHT22;10116;53.112;7.356;2024-03-29T10:52:00;24.70;46.10
19908;DHT22;10116;53.112;7.356;2024-03-29T10:54:28;24.70;47.20
19908;DHT22;10116;53.112;7.356;2024-03-29T10:57:00;24.70;46.80
19908;DHT22;10116;53.112;7.356;2024-03-29T10:59:48;24.70;47.30
19908;DHT22;10116;53.112;7.356;2024-03-29T11:04:54;24.50;44.50
19908;DHT22;10116;53.112;7.356;2024-03-29T11:07:21;24.50;43.40
19908;DHT22;10116;53.112;7.356;2024-03-29T11:09:52;24.50;43.70
19908;DHT22;10116;53.112;7.356;2024-03-29T11:12:22;24.50;43.60
19908;DHT22;10116;53.112;7.356;2024-03-29T11:15:02;24.50;43.90
19908;DHT22;10116;53.112;7.356;2024-03-29T11:17:29;24.60;44.70
19908;DHT22;10116;53.112;7.356;2024-03-29T11:19:57;24.60;45.30
19908;DHT22;10116;53.112;7.356;2024-03-29T11:22:24;24.70;45.90
19908;DHT22;10116;53.112;7.356;2024-03-29T11:24:53;24.80;47.40
19908;DHT22;10116;53.112;7.356;2024-03-29T11:27:22;24.80;47.80
19908;DHT22;10116;53.112;7.356;2024-03-29T11:29:49;24.90;48.50
19908;DHT22;10116;53.112;7.356;2024-03-29T11:32:34;24.90;48.90
19908;DHT22;10116;53.112;7.356;2024-03-29T11:34:59;25.00;49.70
19908;DHT22;10116;53.112;7.356;2024-03-29T11:37:30;25.10;49.80
19908;DHT22;10116;53.112;7.356;2024-03-29T11:39:59;25.10;50.20
19908;DHT22;10116;53.112;7.356;2024-03-29T11:42:44;25.10;50.60
19908;DHT22;10116;53.112;7.356;2024-03-29T11:45:09;25.20;50.60
19908;DHT22;10116;53.112;7.356;2024-03-29T11:47:39;25.20;51.60
19908;DHT22;10116;53.112;7.356;2024-03-29T11:50:06;25.20;51.10
19908;DHT22;10116;53.112;7.356;2024-03-29T11:52:33;25.20;49.80
19908;DHT22;10116;53.112;7.356;2024-03-29T11:54:59;25.10;49.60
19908;DHT22;10116;53.112;7.356;2024-03-29T11:57:24;25.10;49.20
19908;DHT22;10116;53.112;7.356;2024-03-29T11:59:50;25.10;48.80
19908;DHT22;10116;53.112;7.356;2024-03-29T12:02:16;25.10;49.50
19908;DHT22;10116;53.112;7.356;2024-03-29T12:04:42;25.10;48.80
19908;DHT22;10116;53.112;7.356;2024-03-29T12:07:08;24.90;48.20
19908;DHT22;10116;53.112;7.356;2024-03-29T12:09:33;24.80;46.60
19908;DHT22;10116;53.112;7.356;2024-03-29T12:11:59;24.80;46.40
19908;DHT22;10116;53.112;7.356;2024-03-29T12:14:31;24.70;45.20
19908;DHT22;10116;53.112;7.356;2024-03-29T12:17:01;24.60;43.90
19908;DHT22;10116;53.112;7.356;2024-03-29T12:19:26;24.60;43.50
19908;DHT22;10116;53.112;7.356;2024-03-29T12:21:53;24.60;43.80
19908;DHT22;10116;53.112;7.356;2024-03-29T12:24:19;24.60;43.80
19908;DHT22;10116;53.112;7.356;2024-03-29T12:26:48;24.60;44.30
19908;DHT22;10116;53.112;7.356;2024-03-29T12:29:14;24.60;44.50
19908;DHT22;10116;53.112;7.356;2024-03-29T12:31:39;24.60;45.20
19908;DHT22;10116;53.112;7.356;2024-03-29T12:34:05;24.70;44.70
19908;DHT22;10116;53.112;7.356;2024-03-29T12:36:33;24.70;44.70
19908;DHT22;10116;53.112;7.356;2024-03-29T12:38:59;24.70;45.20
19908;DHT22;10116;53.112;7.356;2024-03-29T12:41:29;24.70;45.00
19908;DHT22;10116;53.112;7.356;2024-03-29T12:43:55;24.70;45.20
19908;DHT22;10116;53.112;7.356;2024-03-29T12:46:21;24.70;45.40
19908;DHT22;10116;53.112;7.356;2024-03-29T12:48:46;24.70;45.00
19908;DHT22;10116;53.112;7.356;2024-03-29T12:51:12;24.70;45.00
19908;DHT22;10116;53.112;7.356;2024-03-29T12:53:39;24.70;44.80
19908;DHT22;10116;53.112;7.356;2024-03-29T12:56:05;24.70;46.40
19908;DHT22;10116;53.112;7.356;2024-03-29T12:58:31;24.80;45.30
19908;DHT22;10116;53.112;7.356;2024-03-29T13:00:57;24.80;46.10
19908;DHT22;10116;53.112;7.356;2024-03-29T13:03:23;24.80;46.50
19908;DHT22;10116;53.112;7.356;2024-03-29T13:05:49;24.80;46.00
19908;DHT22;10116;53.112;7.356;2024-03-29T13:08:14;24.80;46.30
19908;DHT22;10116;53.112;7.356;2024-03-29T13:10:43;24.80;46.10
19908;DHT22;10116;53.112;7.356;2024-03-29T13:13:09;24.80;47.20
19908;DHT22;10116;53.112;7.356;2024-03-29T13:15:38;24.90;46.40
19908;DHT22;10116;53.112;7.356;2024-03-29T13:18:05;24.80;46.00
19908;DHT22;10116;53.112;7.356;2024-03-29T13:20:32;24.80;45.90
19908;DHT22;10116;53.112;7.356;2024-03-29T13:22:59;24.80;46.50
19908;DHT22;10116;53.112;7.356;2024-03-29T13:25:26;24.80;46.00
19908;DHT22;10116;53.112;7.356;2024-03-29T13:27:53;24.80;46.50
19908;DHT22;10116;53.112;7.356;2024-03-29T13:30:21;24.80;46.40
19908;DHT22;10116;53.112;7.356;2024-03-29T13:32:47;24.80;45.70
19908;DHT22;10116;53.112;7.356;2024-03-29T13:35:12;24.80;46.50
19908;DHT22;10116;53.112;7.356;2024-03-29T13:37:39;24.80;45.90
19908;DHT22;10116;53.112;7.356;2024-03-29T13:40:06;24.80;45.70
19908;DHT22;10116;53.112;7.356;2024-03-29T13:42:33;24.80;45.50
19908;DHT22;10116;53.112;7.356;2024-03-29T13:44:58;24.70;45.60
19908;DHT22;10116;53.112;7.356;2024-03-29T13:47:24;24.70;44.90
19908;DHT22;10116;53.112;7.356;2024-03-29T13:49:50;24.70;44.90
19908;DHT22;10116;53.112;7.356;2024-03-29T13:52:20;24.60;44.20
19908;DHT22;10116;53.112;7.356;2024-03-29T13:54:46;24.60;44.00
19908;DHT22;10116;53.112;7.356;2024-03-29T13:57:13;24.60;44.50
19908;DHT22;10116;53.112;7.356;2024-03-29T13:59:39;24.60;44.80
19908;DHT22;10116;53.112;7.356;2024-03-29T14:02:05;24.60;44.30
19908;DHT22;10116;53.112;7.356;2024-03-29T14:04:30;24.60;44.30
19908;DHT22;10116;53.112;7.356;2024-03-29T14:06:56;24.60;44.80
19908;DHT22;10116;53.112;7.356;2024-03-29T14:09:22;24.60;44.70
19908;DHT22;10116;53.112;7.356;2024-03-29T14:11:47;24.60;46.60
19908;DHT22;10116;53.112;7.356;2024-03-29T14:14:13;24.70;45.40
19908;DHT22;10116;53.112;7.356;2024-03-29T14:16:39;24.80;47.10
19908;DHT22;10116;53.112;7.356;2024-03-29T14:19:04;24.80;47.50
19908;DHT22;10116;53.112;7.356;2024-03-29T14:21:30;24.80;48.20
19908;DHT22;10116;53.112;7.356;2024-03-29T14:23:59;24.90;48.40
19908;DHT22;10116;53.112;7.356;2024-03-29T14:26:24;25.00;49.00
19908;DHT22;10116;53.112;7.356;2024-03-29T14:28:50;25.00;49.60
19908;DHT22;10116;53.112;7.356;2024-03-29T14:31:16;25.00;49.60
19908;DHT22;10116;53.112;7.356;2024-03-29T14:33:42;25.00;49.80
19908;DHT22;10116;53.112;7.356;2024-03-29T14:36:10;25.10;50.30
19908;DHT22;10116;53.112;7.356;2024-03-29T14:38:35;25.10;50.20
19908;DHT22;10116;53.112;7.356;2024-03-29T14:41:01;25.10;50.20
19908;DHT22;10116;53.112;7.356;2024-03-29T14:43:27;25.10;49.80
19908;DHT22;10116;53.112;7.356;2024-03-29T14:45:52;25.10;49.70
19908;DHT22;10116;53.112;7.356;2024-03-29T14:48:18;25.10;49.70
19908;DHT22;10116;53.112;7.356;2024-03-29T14:50:44;25.10;49.50
19908;DHT22;10116;53.112;7.356;2024-03-29T14:53:10;25.00;49.20
19908;DHT22;10116;53.112;7.356;2024-03-29T14:55:35;25.00;49.10
19908;DHT22;10116;53.112;7.356;2024-03-29T14:58:05;25.00;48.60
19908;DHT22;10116;53.112;7.356;2024-03-29T15:00:31;25.00;48.20
19908;DHT22;10116;53.112;7.356;2024-03-29T15:02:57;25.00;48.80
19908;DHT22;10116;53.112;7.356;2024-03-29T15:05:22;25.00;47.80
19908;DHT22;10116;53.112;7.356;2024-03-29T15:07:51;24.90;48.00
19908;DHT22;10116;53.112;7.356;2024-03-29T15:10:17;24.90;48.10
19908;DHT22;10116;53.112;7.356;2024-03-29T15:12:45;24.90;47.30
19908;DHT22;10116;53.112;7.356;2024-03-29T15:15:12;24.90;48.20
19908;DHT22;10116;53.112;7.356;2024-03-29T15:17:38;24.90;46.70
19908;DHT22;10116;53.112;7.356;2024-03-29T15:20:07;24.80;47.10
19908;DHT22;10116;53.112;7.356;2024-03-29T15:22:35;24.80;46.50
19908;DHT22;10116;53.112;7.356;2024-03-29T15:25:01;24.80;46.90
19908;DHT22;10116;53.112;7.356;2024-03-29T15:27:27;24.80;46.80
19908;DHT22;10116;53.112;7.356;2024-03-29T15:30:14;24.80;47.30
19908;DHT22;10116;53.112;7.356;2024-03-29T15:32:39;24.80;58.20